sensor_id;sensor_type;location;lat;lon;timestamp;pressure;altitude;pressure_sealevel;temperature;humidity
4024;BME280;2026;51.002;13.668;2023-04-07T00:00:53;99256.13;;;1.78;74.19
4024;BME280;2026;51.002;13.668;2023-04-07T00:05:56;99257.38;;;1.74;74.14
4024;BME280;2026;51.002;13.668;2023-04-07T00:10:59;99241.13;;;1.64;74.52
4024;BME280;2026;51.002;13.668;2023-04-07T00:16:04;99242.84;;;1.55;74.63
4024;BME280;2026;51.002;13.668;2023-04-07T00:21:07;99241.00;;;1.47;74.49
4024;BME280;2026;51.002;13.668;2023-04-07T00:26:10;99237.25;;;1.42;74.60
4024;BME280;2026;51.002;13.668;2023-04-07T00:31:17;99239.88;;;1.32;75.01
4024;BME280;2026;51.002;13.668;2023-04-07T00:36:20;99230.72;;;1.37;74.33
4024;BME280;2026;51.002;13.668;2023-04-07T00:41:23;99231.47;;;1.30;74.29
4024;BME280;2026;51.002;13.668;2023-04-07T00:46:28;99226.38;;;1.20;74.61
4024;BME280;2026;51.002;13.668;2023-04-07T00:51:31;99232.41;;;1.10;75.68
4024;BME280;2026;51.002;13.668;2023-04-07T00:56:34;99222.66;;;1.04;75.44
4024;BME280;2026;51.002;13.668;2023-04-07T01:01:43;99215.88;;;1.03;75.64
4024;BME280;2026;51.002;13.668;2023-04-07T01:06:49;99216.47;;;0.97;75.71
4024;BME280;2026;51.002;13.668;2023-04-07T01:12:04;99203.59;;;0.87;75.79
4024;BME280;2026;51.002;13.668;2023-04-07T01:17:12;99209.28;;;0.91;75.84
4024;BME280;2026;51.002;13.668;2023-04-07T01:22:22;99203.25;;;0.82;76.08
4024;BME280;2026;51.002;13.668;2023-04-07T01:27:35;99194.44;;;0.75;76.03
4024;BME280;2026;51.002;13.668;2023-04-07T01:32:44;99198.28;;;0.61;76.52
4024;BME280;2026;51.002;13.668;2023-04-07T01:37:51;99185.59;;;0.49;77.14
4024;BME280;2026;51.002;13.668;2023-04-07T01:42:55;99198.59;;;0.57;76.69
4024;BME280;2026;51.002;13.668;2023-04-07T01:48:00;99192.22;;;0.62;76.59
4024;BME280;2026;51.002;13.668;2023-04-07T01:53:03;99183.41;;;0.54;76.79
4024;BME280;2026;51.002;13.668;2023-04-07T01:58:06;99187.44;;;0.57;76.51
4024;BME280;2026;51.002;13.668;2023-04-07T02:03:19;99182.81;;;0.61;76.12
4024;BME280;2026;51.002;13.668;2023-04-07T02:08:27;99177.78;;;0.31;77.37
4024;BME280;2026;51.002;13.668;2023-04-07T02:13:33;99174.78;;;0.36;77.23
4024;BME280;2026;51.002;13.668;2023-04-07T02:18:39;99165.56;;;0.33;76.97
4024;BME280;2026;51.002;13.668;2023-04-07T02:23:42;99167.91;;;0.26;77.50
4024;BME280;2026;51.002;13.668;2023-04-07T02:28:46;99172.41;;;0.24;77.47
4024;BME280;2026;51.002;13.668;2023-04-07T02:33:52;99160.47;;;0.23;77.92
4024;BME280;2026;51.002;13.668;2023-04-07T02:38:55;99154.34;;;0.24;77.52
4024;BME280;2026;51.002;13.668;2023-04-07T02:43:58;99160.47;;;0.23;77.40
4024;BME280;2026;51.002;13.668;2023-04-07T02:49:03;99158.97;;;0.21;77.83
4024;BME280;2026;51.002;13.668;2023-04-07T02:54:05;99153.41;;;0.15;77.82
4024;BME280;2026;51.002;13.668;2023-04-07T02:59:08;99153.56;;;0.14;77.81
4024;BME280;2026;51.002;13.668;2023-04-07T03:04:17;99157.00;;;0.05;78.05
4024;BME280;2026;51.002;13.668;2023-04-07T03:09:20;99146.69;;;0.05;78.17
4024;BME280;2026;51.002;13.668;2023-04-07T03:14:23;99152.91;;;0.02;78.54
4024;BME280;2026;51.002;13.668;2023-04-07T03:19:27;99141.84;;;-0.08;79.66
4024;BME280;2026;51.002;13.668;2023-04-07T03:24:31;99140.31;;;-0.01;78.92
4024;BME280;2026;51.002;13.668;2023-04-07T03:29:35;99132.34;;;-0.08;78.67
4024;BME280;2026;51.002;13.668;2023-04-07T03:34:42;99132.06;;;-0.05;78.76
4024;BME280;2026;51.002;13.668;2023-04-07T03:39:47;99133.69;;;-0.04;79.09
4024;BME280;2026;51.002;13.668;2023-04-07T03:44:59;99133.16;;;-0.07;78.52
4024;BME280;2026;51.002;13.668;2023-04-07T03:50:05;99130.88;;;-0.20;78.80
4024;BME280;2026;51.002;13.668;2023-04-07T03:55:16;99128.31;;;-0.20;78.77
4024;BME280;2026;51.002;13.668;2023-04-07T04:00:20;99136.84;;;-0.20;79.02
4024;BME280;2026;51.002;13.668;2023-04-07T04:05:38;99135.38;;;-0.22;79.00
4024;BME280;2026;51.002;13.668;2023-04-07T04:10:49;99122.84;;;-0.17;79.58
4024;BME280;2026;51.002;13.668;2023-04-07T04:15:53;99128.53;;;-0.14;79.13
4024;BME280;2026;51.002;13.668;2023-04-07T04:20:57;99128.41;;;-0.12;78.96
4024;BME280;2026;51.002;13.668;2023-04-07T04:26:00;99136.00;;;-0.11;79.01
4024;BME280;2026;51.002;13.668;2023-04-07T04:31:06;99133.69;;;-0.14;79.02
4024;BME280;2026;51.002;13.668;2023-04-07T04:36:15;99141.03;;;-0.09;79.16
4024;BME280;2026;51.002;13.668;2023-04-07T04:41:19;99143.09;;;-0.22;79.57
4024;BME280;2026;51.002;13.668;2023-04-07T04:46:25;99136.69;;;-0.18;79.68
4024;BME280;2026;51.002;13.668;2023-04-07T04:51:29;99132.66;;;-0.21;79.78
4024;BME280;2026;51.002;13.668;2023-04-07T04:56:39;99135.34;;;-0.13;79.41
4024;BME280;2026;51.002;13.668;2023-04-07T05:01:44;99141.16;;;-0.11;79.78
4024;BME280;2026;51.002;13.668;2023-04-07T05:06:51;99140.97;;;0.01;79.78
4024;BME280;2026;51.002;13.668;2023-04-07T05:11:59;99135.63;;;0.22;78.63
4024;BME280;2026;51.002;13.668;2023-04-07T05:17:07;99132.38;;;0.48;78.30
4024;BME280;2026;51.002;13.668;2023-04-07T05:22:13;99130.06;;;0.73;77.79
4024;BME280;2026;51.002;13.668;2023-04-07T05:27:19;99135.75;;;0.77;78.37
4024;BME280;2026;51.002;13.668;2023-04-07T05:32:27;99132.41;;;1.57;76.39
4024;BME280;2026;51.002;13.668;2023-04-07T05:37:34;99124.66;;;2.18;74.44
4024;BME280;2026;51.002;13.668;2023-04-07T05:42:38;99126.94;;;2.89;70.13
4024;BME280;2026;51.002;13.668;2023-04-07T05:47:42;99125.53;;;3.20;70.39
4024;BME280;2026;51.002;13.668;2023-04-07T05:52:47;99122.31;;;3.35;67.25
4024;BME280;2026;51.002;13.668;2023-04-07T05:57:55;99118.44;;;2.46;71.33
4024;BME280;2026;51.002;13.668;2023-04-07T06:03:02;99129.84;;;2.18;73.22
4024;BME280;2026;51.002;13.668;2023-04-07T06:08:17;99133.75;;;1.96;72.66
4024;BME280;2026;51.002;13.668;2023-04-07T06:13:20;99130.84;;;2.26;72.87
4024;BME280;2026;51.002;13.668;2023-04-07T06:18:23;99131.72;;;2.59;73.42
4024;BME280;2026;51.002;13.668;2023-04-07T06:23:27;99127.13;;;3.46;69.11
4024;BME280;2026;51.002;13.668;2023-04-07T06:28:31;99117.59;;;4.83;63.04
4024;BME280;2026;51.002;13.668;2023-04-07T06:33:34;99120.16;;;5.83;61.58
4024;BME280;2026;51.002;13.668;2023-04-07T06:38:38;99117.22;;;6.01;58.76
4024;BME280;2026;51.002;13.668;2023-04-07T06:43:42;99120.97;;;6.66;57.08
4024;BME280;2026;51.002;13.668;2023-04-07T06:48:45;99121.94;;;6.13;57.99
4024;BME280;2026;51.002;13.668;2023-04-07T06:53:49;99123.13;;;6.62;57.85
4024;BME280;2026;51.002;13.668;2023-04-07T06:58:52;99114.84;;;7.39;54.76
4024;BME280;2026;51.002;13.668;2023-04-07T07:03:55;99112.31;;;7.24;52.73
4024;BME280;2026;51.002;13.668;2023-04-07T07:09:00;99102.16;;;7.93;53.27
4024;BME280;2026;51.002;13.668;2023-04-07T07:14:03;99110.59;;;8.02;51.05
4024;BME280;2026;51.002;13.668;2023-04-07T07:19:06;99112.59;;;8.35;52.08
4024;BME280;2026;51.002;13.668;2023-04-07T07:24:11;99117.56;;;8.92;49.75
4024;BME280;2026;51.002;13.668;2023-04-07T07:29:14;99120.47;;;8.06;51.61
4024;BME280;2026;51.002;13.668;2023-04-07T07:34:17;99126.69;;;8.47;53.86
4024;BME280;2026;51.002;13.668;2023-04-07T07:39:21;99130.28;;;8.46;52.06
4024;BME280;2026;51.002;13.668;2023-04-07T07:44:24;99134.38;;;8.62;51.80
4024;BME280;2026;51.002;13.668;2023-04-07T07:49:27;99134.31;;;9.65;51.96
4024;BME280;2026;51.002;13.668;2023-04-07T07:54:32;99135.41;;;10.16;50.58
4024;BME280;2026;51.002;13.668;2023-04-07T07:59:34;99129.69;;;10.72;48.46
4024;BME280;2026;51.002;13.668;2023-04-07T08:04:37;99138.84;;;11.52;43.26
4024;BME280;2026;51.002;13.668;2023-04-07T08:09:42;99133.97;;;10.73;40.55
4024;BME280;2026;51.002;13.668;2023-04-07T08:14:45;99149.41;;;9.56;39.62
4024;BME280;2026;51.002;13.668;2023-04-07T08:19:48;99150.06;;;8.62;41.36
4024;BME280;2026;51.002;13.668;2023-04-07T08:24:52;99152.03;;;7.76;45.44
4024;BME280;2026;51.002;13.668;2023-04-07T08:30:03;99159.59;;;8.35;46.50
4024;BME280;2026;51.002;13.668;2023-04-07T08:35:07;99166.63;;;8.96;45.26
4024;BME280;2026;51.002;13.668;2023-04-07T08:40:12;99169.88;;;8.43;45.64
4024;BME280;2026;51.002;13.668;2023-04-07T08:45:17;99148.56;;;9.29;43.19
4024;BME280;2026;51.002;13.668;2023-04-07T08:50:20;99139.34;;;9.53;42.14
4024;BME280;2026;51.002;13.668;2023-04-07T08:55:25;99149.13;;;8.84;44.46
4024;BME280;2026;51.002;13.668;2023-04-07T09:00:28;99142.13;;;8.42;44.79
4024;BME280;2026;51.002;13.668;2023-04-07T09:05:32;99150.84;;;8.14;45.29
4024;BME280;2026;51.002;13.668;2023-04-07T09:10:37;99150.59;;;8.44;44.85
4024;BME280;2026;51.002;13.668;2023-04-07T09:15:40;99148.56;;;9.08;44.09
4024;BME280;2026;51.002;13.668;2023-04-07T09:20:57;99148.59;;;9.62;43.26
4024;BME280;2026;51.002;13.668;2023-04-07T09:26:18;99141.56;;;9.56;41.79
4024;BME280;2026;51.002;13.668;2023-04-07T09:31:23;99143.63;;;10.27;41.60
4024;BME280;2026;51.002;13.668;2023-04-07T09:36:44;99136.09;;;9.51;42.65
4024;BME280;2026;51.002;13.668;2023-04-07T09:41:49;99131.25;;;9.34;41.63
4024;BME280;2026;51.002;13.668;2023-04-07T09:46:54;99126.03;;;9.21;43.85
4024;BME280;2026;51.002;13.668;2023-04-07T09:51:59;99137.25;;;8.88;42.00
4024;BME280;2026;51.002;13.668;2023-04-07T09:57:08;99131.63;;;9.04;42.67
4024;BME280;2026;51.002;13.668;2023-04-07T10:02:11;99127.25;;;9.66;43.42
4024;BME280;2026;51.002;13.668;2023-04-07T10:07:14;99130.06;;;9.30;42.69
4024;BME280;2026;51.002;13.668;2023-04-07T10:12:19;99140.47;;;8.96;42.91
4024;BME280;2026;51.002;13.668;2023-04-07T10:17:22;99132.09;;;9.55;44.33
4024;BME280;2026;51.002;13.668;2023-04-07T10:22:26;99126.03;;;9.34;42.05
4024;BME280;2026;51.002;13.668;2023-04-07T10:27:34;99132.03;;;9.08;42.03
4024;BME280;2026;51.002;13.668;2023-04-07T10:32:45;99121.59;;;9.42;41.13
4024;BME280;2026;51.002;13.668;2023-04-07T10:38:08;99127.22;;;9.25;40.76
4024;BME280;2026;51.002;13.668;2023-04-07T10:43:39;99124.13;;;10.09;40.56
4024;BME280;2026;51.002;13.668;2023-04-07T10:49:07;99116.97;;;11.08;38.68
4024;BME280;2026;51.002;13.668;2023-04-07T10:54:19;99124.59;;;11.16;38.66
4024;BME280;2026;51.002;13.668;2023-04-07T10:59:24;99123.56;;;9.87;39.31
4024;BME280;2026;51.002;13.668;2023-04-07T11:04:35;99124.72;;;10.11;38.84
4024;BME280;2026;51.002;13.668;2023-04-07T11:09:39;99129.06;;;9.31;40.04
4024;BME280;2026;51.002;13.668;2023-04-07T11:14:44;99116.69;;;10.52;42.26
4024;BME280;2026;51.002;13.668;2023-04-07T11:19:50;99114.91;;;10.52;38.83
4024;BME280;2026;51.002;13.668;2023-04-07T11:24:53;99116.09;;;10.50;37.77
4024;BME280;2026;51.002;13.668;2023-04-07T11:29:58;99116.38;;;11.06;39.09
4024;BME280;2026;51.002;13.668;2023-04-07T11:35:05;99110.81;;;10.63;37.36
4024;BME280;2026;51.002;13.668;2023-04-07T11:40:09;99119.91;;;10.01;39.28
4024;BME280;2026;51.002;13.668;2023-04-07T11:45:18;99112.84;;;10.15;39.00
4024;BME280;2026;51.002;13.668;2023-04-07T11:50:40;99114.09;;;9.86;38.18
4024;BME280;2026;51.002;13.668;2023-04-07T11:55:43;99113.56;;;9.63;38.44
4024;BME280;2026;51.002;13.668;2023-04-07T12:00:55;99110.97;;;10.29;37.93
4024;BME280;2026;51.002;13.668;2023-04-07T12:05:58;99119.00;;;10.35;37.25
4024;BME280;2026;51.002;13.668;2023-04-07T12:11:02;99101.81;;;11.35;37.12
4024;BME280;2026;51.002;13.668;2023-04-07T12:16:07;99108.25;;;10.50;39.71
4024;BME280;2026;51.002;13.668;2023-04-07T12:21:10;99103.78;;;11.47;38.94
4024;BME280;2026;51.002;13.668;2023-04-07T12:26:13;99102.19;;;11.39;36.19
4024;BME280;2026;51.002;13.668;2023-04-07T12:31:18;99104.22;;;11.37;36.60
4024;BME280;2026;51.002;13.668;2023-04-07T12:36:22;99104.53;;;11.73;36.81
4024;BME280;2026;51.002;13.668;2023-04-07T12:41:28;99094.97;;;11.78;36.52
4024;BME280;2026;51.002;13.668;2023-04-07T12:46:33;99100.13;;;11.48;36.63
4024;BME280;2026;51.002;13.668;2023-04-07T12:51:36;99095.56;;;12.18;37.60
4024;BME280;2026;51.002;13.668;2023-04-07T12:56:41;99099.75;;;10.86;38.41
4024;BME280;2026;51.002;13.668;2023-04-07T13:01:45;99092.97;;;10.79;37.97
4024;BME280;2026;51.002;13.668;2023-04-07T13:06:51;99106.75;;;10.28;40.99
4024;BME280;2026;51.002;13.668;2023-04-07T13:11:54;99108.00;;;10.58;39.71
4024;BME280;2026;51.002;13.668;2023-04-07T13:16:59;99106.34;;;10.96;39.98
4024;BME280;2026;51.002;13.668;2023-04-07T13:22:03;99101.28;;;11.01;39.40
4024;BME280;2026;51.002;13.668;2023-04-07T13:27:07;99101.38;;;10.87;40.69
4024;BME280;2026;51.002;13.668;2023-04-07T13:32:11;99096.34;;;10.54;42.00
4024;BME280;2026;51.002;13.668;2023-04-07T13:37:15;99108.00;;;10.19;43.29
4024;BME280;2026;51.002;13.668;2023-04-07T13:42:20;99101.38;;;10.87;44.16
4024;BME280;2026;51.002;13.668;2023-04-07T13:47:24;99086.34;;;11.52;42.52
4024;BME280;2026;51.002;13.668;2023-04-07T13:52:27;99085.06;;;11.80;40.48
4024;BME280;2026;51.002;13.668;2023-04-07T13:57:30;99081.19;;;11.39;42.09
4024;BME280;2026;51.002;13.668;2023-04-07T14:02:34;99087.91;;;11.60;41.32
4024;BME280;2026;51.002;13.668;2023-04-07T14:07:37;99083.38;;;10.66;41.63
4024;BME280;2026;51.002;13.668;2023-04-07T14:12:40;99076.13;;;10.93;41.84
4024;BME280;2026;51.002;13.668;2023-04-07T14:17:45;99072.63;;;10.99;41.50
4024;BME280;2026;51.002;13.668;2023-04-07T14:22:48;99080.56;;;11.18;41.04
4024;BME280;2026;51.002;13.668;2023-04-07T14:27:51;99070.94;;;11.12;41.06
4024;BME280;2026;51.002;13.668;2023-04-07T14:32:55;99068.31;;;11.12;41.80
4024;BME280;2026;51.002;13.668;2023-04-07T14:37:58;99079.00;;;11.36;41.79
4024;BME280;2026;51.002;13.668;2023-04-07T14:43:01;99082.16;;;10.62;42.61
4024;BME280;2026;51.002;13.668;2023-04-07T14:48:09;99071.41;;;11.02;41.64
4024;BME280;2026;51.002;13.668;2023-04-07T14:53:12;99082.41;;;10.53;42.88
4024;BME280;2026;51.002;13.668;2023-04-07T14:58:16;99087.84;;;10.58;42.85
4024;BME280;2026;51.002;13.668;2023-04-07T15:03:20;99084.50;;;10.38;44.18
4024;BME280;2026;51.002;13.668;2023-04-07T15:08:24;99089.25;;;10.15;44.49
4024;BME280;2026;51.002;13.668;2023-04-07T15:13:27;99084.03;;;10.09;46.00
4024;BME280;2026;51.002;13.668;2023-04-07T15:18:32;99082.50;;;9.74;45.88
4024;BME280;2026;51.002;13.668;2023-04-07T15:23:35;99083.28;;;9.95;46.31
4024;BME280;2026;51.002;13.668;2023-04-07T15:28:39;99085.75;;;9.49;47.30
4024;BME280;2026;51.002;13.668;2023-04-07T15:33:43;99081.75;;;9.53;47.97
4024;BME280;2026;51.002;13.668;2023-04-07T15:38:47;99076.16;;;10.15;47.42
4024;BME280;2026;51.002;13.668;2023-04-07T15:43:50;99085.72;;;9.83;46.02
4024;BME280;2026;51.002;13.668;2023-04-07T15:48:54;99088.38;;;9.49;48.11
4024;BME280;2026;51.002;13.668;2023-04-07T15:53:58;99087.00;;;9.19;47.89
4024;BME280;2026;51.002;13.668;2023-04-07T15:59:01;99094.22;;;9.31;47.57
4024;BME280;2026;51.002;13.668;2023-04-07T16:04:06;99103.88;;;9.03;48.34
4024;BME280;2026;51.002;13.668;2023-04-07T16:09:09;99094.63;;;8.94;48.86
4024;BME280;2026;51.002;13.668;2023-04-07T16:14:12;99105.47;;;8.98;49.18
4024;BME280;2026;51.002;13.668;2023-04-07T16:19:16;99104.28;;;9.00;49.12
4024;BME280;2026;51.002;13.668;2023-04-07T16:24:19;99118.41;;;8.37;50.52
4024;BME280;2026;51.002;13.668;2023-04-07T16:29:22;99122.28;;;8.54;50.95
4024;BME280;2026;51.002;13.668;2023-04-07T16:34:27;99127.59;;;8.88;50.57
4024;BME280;2026;51.002;13.668;2023-04-07T16:39:30;99133.44;;;8.28;52.94
4024;BME280;2026;51.002;13.668;2023-04-07T16:44:33;99141.47;;;8.26;53.58
4024;BME280;2026;51.002;13.668;2023-04-07T16:49:38;99151.88;;;8.13;54.36
4024;BME280;2026;51.002;13.668;2023-04-07T16:54:41;99157.66;;;7.80;55.39
4024;BME280;2026;51.002;13.668;2023-04-07T16:59:44;99156.31;;;7.84;55.22
4024;BME280;2026;51.002;13.668;2023-04-07T17:04:50;99162.38;;;7.91;55.37
4024;BME280;2026;51.002;13.668;2023-04-07T17:09:53;99168.09;;;7.51;56.38
4024;BME280;2026;51.002;13.668;2023-04-07T17:14:56;99166.94;;;7.54;56.66
4024;BME280;2026;51.002;13.668;2023-04-07T17:20:00;99171.50;;;7.74;55.78
4024;BME280;2026;51.002;13.668;2023-04-07T17:25:04;99179.63;;;7.35;56.77
4024;BME280;2026;51.002;13.668;2023-04-07T17:30:08;99184.19;;;7.55;57.01
4024;BME280;2026;51.002;13.668;2023-04-07T17:35:12;99192.97;;;6.88;58.35
4024;BME280;2026;51.002;13.668;2023-04-07T17:40:15;99202.28;;;6.98;58.50
4024;BME280;2026;51.002;13.668;2023-04-07T17:45:18;99212.06;;;7.11;57.84
4024;BME280;2026;51.002;13.668;2023-04-07T17:50:23;99216.38;;;6.67;60.21
4024;BME280;2026;51.002;13.668;2023-04-07T17:55:26;99223.59;;;6.34;62.39
4024;BME280;2026;51.002;13.668;2023-04-07T18:00:29;99232.19;;;6.20;63.09
4024;BME280;2026;51.002;13.668;2023-04-07T18:05:34;99234.97;;;6.63;62.37
4024;BME280;2026;51.002;13.668;2023-04-07T18:10:38;99237.22;;;6.37;63.39
4024;BME280;2026;51.002;13.668;2023-04-07T18:15:41;99240.53;;;6.60;63.52
4024;BME280;2026;51.002;13.668;2023-04-07T18:20:45;99246.94;;;6.43;65.89
4024;BME280;2026;51.002;13.668;2023-04-07T18:25:48;99257.41;;;6.19;68.30
4024;BME280;2026;51.002;13.668;2023-04-07T18:30:58;99256.53;;;5.89;69.82
4024;BME280;2026;51.002;13.668;2023-04-07T18:36:05;99263.38;;;5.90;70.35
4024;BME280;2026;51.002;13.668;2023-04-07T18:41:10;99264.19;;;5.67;71.32
4024;BME280;2026;51.002;13.668;2023-04-07T18:46:14;99269.91;;;5.86;71.19
4024;BME280;2026;51.002;13.668;2023-04-07T18:51:19;99277.81;;;5.92;72.01
4024;BME280;2026;51.002;13.668;2023-04-07T18:56:22;99280.50;;;5.61;74.80
4024;BME280;2026;51.002;13.668;2023-04-07T19:01:27;99281.78;;;5.65;74.98
4024;BME280;2026;51.002;13.668;2023-04-07T19:06:32;99275.38;;;5.91;75.38
4024;BME280;2026;51.002;13.668;2023-04-07T19:11:36;99285.56;;;6.01;75.93
4024;BME280;2026;51.002;13.668;2023-04-07T19:16:40;99293.00;;;5.65;78.97
4024;BME280;2026;51.002;13.668;2023-04-07T19:21:46;99297.50;;;5.17;83.24
4024;BME280;2026;51.002;13.668;2023-04-07T19:26:49;99304.97;;;5.75;82.13
4024;BME280;2026;51.002;13.668;2023-04-07T19:31:53;99309.25;;;5.36;85.44
4024;BME280;2026;51.002;13.668;2023-04-07T19:36:59;99306.31;;;5.39;86.45
4024;BME280;2026;51.002;13.668;2023-04-07T19:42:02;99305.16;;;5.10;88.82
4024;BME280;2026;51.002;13.668;2023-04-07T19:47:05;99305.94;;;5.19;89.33
4024;BME280;2026;51.002;13.668;2023-04-07T19:52:09;99312.78;;;4.72;92.03
4024;BME280;2026;51.002;13.668;2023-04-07T19:57:12;99315.84;;;4.75;92.57
4024;BME280;2026;51.002;13.668;2023-04-07T20:02:16;99316.53;;;4.61;93.06
4024;BME280;2026;51.002;13.668;2023-04-07T20:07:21;99313.94;;;4.61;94.20
4024;BME280;2026;51.002;13.668;2023-04-07T20:12:24;99315.22;;;4.73;93.28
4024;BME280;2026;51.002;13.668;2023-04-07T20:17:27;99319.00;;;4.46;95.14
4024;BME280;2026;51.002;13.668;2023-04-07T20:22:32;99320.44;;;5.05;92.04
4024;BME280;2026;51.002;13.668;2023-04-07T20:27:36;99316.22;;;5.04;91.91
4024;BME280;2026;51.002;13.668;2023-04-07T20:32:40;99305.94;;;4.79;94.10
4024;BME280;2026;51.002;13.668;2023-04-07T20:37:45;99313.03;;;5.25;92.38
4024;BME280;2026;51.002;13.668;2023-04-07T20:42:48;99313.91;;;4.69;94.61
4024;BME280;2026;51.002;13.668;2023-04-07T20:47:51;99309.78;;;4.26;95.64
4024;BME280;2026;51.002;13.668;2023-04-07T20:52:55;99308.44;;;4.39;96.23
4024;BME280;2026;51.002;13.668;2023-04-07T20:57:58;99314.59;;;4.46;95.36
4024;BME280;2026;51.002;13.668;2023-04-07T21:03:02;99306.19;;;4.44;95.00
4024;BME280;2026;51.002;13.668;2023-04-07T21:08:06;99308.63;;;4.46;94.55
4024;BME280;2026;51.002;13.668;2023-04-07T21:13:09;99306.84;;;4.21;96.09
4024;BME280;2026;51.002;13.668;2023-04-07T21:18:12;99305.03;;;4.55;94.34
4024;BME280;2026;51.002;13.668;2023-04-07T21:23:17;99306.38;;;4.18;97.10
4024;BME280;2026;51.002;13.668;2023-04-07T21:28:20;99309.13;;;4.41;97.85
4024;BME280;2026;51.002;13.668;2023-04-07T21:33:23;99312.69;;;4.07;98.16
4024;BME280;2026;51.002;13.668;2023-04-07T21:38:28;99309.59;;;4.11;98.91
4024;BME280;2026;51.002;13.668;2023-04-07T21:43:31;99299.56;;;4.17;99.41
4024;BME280;2026;51.002;13.668;2023-04-07T21:48:35;99297.78;;;3.92;100.00
4024;BME280;2026;51.002;13.668;2023-04-07T21:53:39;99302.50;;;4.05;100.00
4024;BME280;2026;51.002;13.668;2023-04-07T21:58:42;99304.25;;;4.13;100.00
4024;BME280;2026;51.002;13.668;2023-04-07T22:03:47;99304.75;;;4.25;100.00
4024;BME280;2026;51.002;13.668;2023-04-07T22:08:51;99304.13;;;4.06;100.00
4024;BME280;2026;51.002;13.668;2023-04-07T22:14:02;99310.25;;;3.97;100.00
4024;BME280;2026;51.002;13.668;2023-04-07T22:19:05;99309.78;;;3.93;100.00
4024;BME280;2026;51.002;13.668;2023-04-07T22:24:10;99305.38;;;4.27;100.00
4024;BME280;2026;51.002;13.668;2023-04-07T22:29:13;99311.53;;;4.42;100.00
4024;BME280;2026;51.002;13.668;2023-04-07T22:34:16;99303.69;;;4.59;100.00
4024;BME280;2026;51.002;13.668;2023-04-07T22:39:21;99303.72;;;4.42;100.00
4024;BME280;2026;51.002;13.668;2023-04-07T22:44:24;99311.41;;;4.11;100.00
4024;BME280;2026;51.002;13.668;2023-04-07T22:49:28;99314.97;;;4.26;100.00
4024;BME280;2026;51.002;13.668;2023-04-07T22:54:32;99309.84;;;4.66;100.00
4024;BME280;2026;51.002;13.668;2023-04-07T22:59:36;99311.19;;;4.62;100.00
4024;BME280;2026;51.002;13.668;2023-04-07T23:04:39;99307.00;;;4.45;100.00
4024;BME280;2026;51.002;13.668;2023-04-07T23:09:43;99319.66;;;4.31;100.00
4024;BME280;2026;51.002;13.668;2023-04-07T23:14:46;99319.97;;;4.28;100.00
4024;BME280;2026;51.002;13.668;2023-04-07T23:19:49;99323.56;;;4.27;100.00
4024;BME280;2026;51.002;13.668;2023-04-07T23:24:54;99318.34;;;4.43;100.00
4024;BME280;2026;51.002;13.668;2023-04-07T23:29:57;99315.72;;;4.68;100.00
4024;BME280;2026;51.002;13.668;2023-04-07T23:35:00;99312.19;;;4.28;100.00
4024;BME280;2026;51.002;13.668;2023-04-07T23:40:06;99306.31;;;4.51;100.00
4024;BME280;2026;51.002;13.668;2023-04-07T23:45:09;99308.91;;;4.51;100.00
4024;BME280;2026;51.002;13.668;2023-04-07T23:50:12;99307.72;;;4.78;100.00
4024;BME280;2026;51.002;13.668;2023-04-07T23:55:17;99302.72;;;4.68;100.00
